Terminal Aerodrome Forecast
Issued by NWS

Home | Current Version | Previous Version | Text Only | Print | Product List | Glossary On
Versions: 1 2 3 4 5 6 7 8 9 10 11 12 13 14 15 16
063
FTUS45 KTFX 241123
TAFCTB
TAF
KCTB 241123Z 2412/2512 33007KT P6SM BKN025
     FM241500 29007KT P6SM SCT030 BKN050
     FM241700 32007KT P6SM VCSH SCT050 BKN080
     FM250600 29004KT P6SM SCT080=

USA.gov is the U.S. government's official web portal to all federal, state and local government web resources and services.